sensor_id;sensor_type;location;lat;lon;timestamp;temperature;humidity
64501;DHT22;50874;24.150;-110.320;2023-10-08T00:01:19;29.20;99.90
64501;DHT22;50874;24.150;-110.320;2023-10-08T00:03:48;29.20;99.90
64501;DHT22;50874;24.150;-110.320;2023-10-08T00:06:20;29.30;99.90
64501;DHT22;50874;24.150;-110.320;2023-10-08T00:08:51;29.30;99.90
64501;DHT22;50874;24.150;-110.320;2023-10-08T00:11:18;29.40;99.90
64501;DHT22;50874;24.150;-110.320;2023-10-08T00:13:44;29.40;99.90
64501;DHT22;50874;24.150;-110.320;2023-10-08T00:16:14;29.40;99.90
64501;DHT22;50874;24.150;-110.320;2023-10-08T00:18:49;29.50;99.90
64501;DHT22;50874;24.150;-110.320;2023-10-08T00:21:20;29.60;99.90
64501;DHT22;50874;24.150;-110.320;2023-10-08T00:23:53;29.70;99.90
64501;DHT22;50874;24.150;-110.320;2023-10-08T00:26:27;29.80;99.90
64501;DHT22;50874;24.150;-110.320;2023-10-08T00:31:26;29.90;99.90
64501;DHT22;50874;24.150;-110.320;2023-10-08T00:34:07;30.00;99.90
64501;DHT22;50874;24.150;-110.320;2023-10-08T00:36:39;30.10;99.90
64501;DHT22;50874;24.150;-110.320;2023-10-08T00:39:12;30.10;99.90
64501;DHT22;50874;24.150;-110.320;2023-10-08T00:42:00;30.10;99.90
64501;DHT22;50874;24.150;-110.320;2023-10-08T00:44:30;30.00;99.90
64501;DHT22;50874;24.150;-110.320;2023-10-08T00:47:01;30.00;99.90
64501;DHT22;50874;24.150;-110.320;2023-10-08T00:49:30;30.00;99.90
64501;DHT22;50874;24.150;-110.320;2023-10-08T00:52:21;29.90;99.90
64501;DHT22;50874;24.150;-110.320;2023-10-08T00:54:56;29.80;99.90
64501;DHT22;50874;24.150;-110.320;2023-10-08T00:57:47;29.70;99.90
64501;DHT22;50874;24.150;-110.320;2023-10-08T01:00:20;29.60;99.90
64501;DHT22;50874;24.150;-110.320;2023-10-08T01:02:58;29.50;99.90
64501;DHT22;50874;24.150;-110.320;2023-10-08T01:05:28;29.40;99.90
64501;DHT22;50874;24.150;-110.320;2023-10-08T01:08:15;29.50;99.90
64501;DHT22;50874;24.150;-110.320;2023-10-08T01:11:24;29.70;99.90
64501;DHT22;50874;24.150;-110.320;2023-10-08T01:14:21;29.60;99.90
64501;DHT22;50874;24.150;-110.320;2023-10-08T01:16:57;29.40;99.90
64501;DHT22;50874;24.150;-110.320;2023-10-08T01:19:24;29.30;99.90
64501;DHT22;50874;24.150;-110.320;2023-10-08T01:21:53;29.30;99.90
64501;DHT22;50874;24.150;-110.320;2023-10-08T01:24:19;29.30;99.90
64501;DHT22;50874;24.150;-110.320;2023-10-08T01:26:54;29.20;99.90
64501;DHT22;50874;24.150;-110.320;2023-10-08T01:29:21;29.10;99.90
64501;DHT22;50874;24.150;-110.320;2023-10-08T01:31:55;29.10;99.90
64501;DHT22;50874;24.150;-110.320;2023-10-08T01:34:23;29.10;99.90
64501;DHT22;50874;24.150;-110.320;2023-10-08T01:37:02;29.20;99.90
64501;DHT22;50874;24.150;-110.320;2023-10-08T01:39:37;29.20;99.90
64501;DHT22;50874;24.150;-110.320;2023-10-08T01:42:22;29.20;99.90
64501;DHT22;50874;24.150;-110.320;2023-10-08T01:44:53;29.10;99.90
64501;DHT22;50874;24.150;-110.320;2023-10-08T01:47:22;29.00;99.90
64501;DHT22;50874;24.150;-110.320;2023-10-08T01:49:51;29.00;99.90
64501;DHT22;50874;24.150;-110.320;2023-10-08T01:52:24;29.10;99.90
64501;DHT22;50874;24.150;-110.320;2023-10-08T01:54:51;29.10;99.90
64501;DHT22;50874;24.150;-110.320;2023-10-08T01:57:25;29.20;99.90
64501;DHT22;50874;24.150;-110.320;2023-10-08T01:59:51;29.30;99.90
64501;DHT22;50874;24.150;-110.320;2023-10-08T02:02:18;29.30;99.90
64501;DHT22;50874;24.150;-110.320;2023-10-08T02:04:49;29.40;99.90
64501;DHT22;50874;24.150;-110.320;2023-10-08T02:07:23;29.40;99.90
64501;DHT22;50874;24.150;-110.320;2023-10-08T02:09:51;29.50;99.90
64501;DHT22;50874;24.150;-110.320;2023-10-08T02:12:22;29.50;99.90
64501;DHT22;50874;24.150;-110.320;2023-10-08T02:14:52;29.60;99.90
64501;DHT22;50874;24.150;-110.320;2023-10-08T02:17:25;29.70;99.90
64501;DHT22;50874;24.150;-110.320;2023-10-08T02:19:54;29.70;99.90
64501;DHT22;50874;24.150;-110.320;2023-10-08T02:22:23;29.70;99.90
64501;DHT22;50874;24.150;-110.320;2023-10-08T02:24:52;29.80;99.90
64501;DHT22;50874;24.150;-110.320;2023-10-08T02:27:20;29.80;99.90
64501;DHT22;50874;24.150;-110.320;2023-10-08T02:29:55;29.80;99.90
64501;DHT22;50874;24.150;-110.320;2023-10-08T02:32:25;29.80;99.90
64501;DHT22;50874;24.150;-110.320;2023-10-08T02:34:52;29.90;99.90
64501;DHT22;50874;24.150;-110.320;2023-10-08T02:37:26;29.90;99.90
64501;DHT22;50874;24.150;-110.320;2023-10-08T02:39:53;29.90;99.90
64501;DHT22;50874;24.150;-110.320;2023-10-08T02:42:26;30.00;99.90
64501;DHT22;50874;24.150;-110.320;2023-10-08T02:44:57;30.00;99.90
64501;DHT22;50874;24.150;-110.320;2023-10-08T02:47:28;30.00;99.90
64501;DHT22;50874;24.150;-110.320;2023-10-08T02:49:55;30.00;99.90
64501;DHT22;50874;24.150;-110.320;2023-10-08T02:52:22;30.00;99.90
64501;DHT22;50874;24.150;-110.320;2023-10-08T02:54:51;30.00;99.90
64501;DHT22;50874;24.150;-110.320;2023-10-08T02:57:27;30.00;99.90
64501;DHT22;50874;24.150;-110.320;2023-10-08T02:59:55;30.00;99.90
64501;DHT22;50874;24.150;-110.320;2023-10-08T03:02:25;30.00;99.90
64501;DHT22;50874;24.150;-110.320;2023-10-08T03:04:54;30.00;99.90
64501;DHT22;50874;24.150;-110.320;2023-10-08T03:07:26;30.00;99.90
64501;DHT22;50874;24.150;-110.320;2023-10-08T03:10:00;29.80;99.90
64501;DHT22;50874;24.150;-110.320;2023-10-08T03:12:30;29.70;99.90
64501;DHT22;50874;24.150;-110.320;2023-10-08T03:15:06;29.50;99.90
64501;DHT22;50874;24.150;-110.320;2023-10-08T03:17:53;29.40;99.90
64501;DHT22;50874;24.150;-110.320;2023-10-08T03:20:20;29.30;99.90
64501;DHT22;50874;24.150;-110.320;2023-10-08T03:23:17;29.20;99.90
64501;DHT22;50874;24.150;-110.320;2023-10-08T03:25:55;29.10;99.90
64501;DHT22;50874;24.150;-110.320;2023-10-08T03:28:30;29.10;99.90
64501;DHT22;50874;24.150;-110.320;2023-10-08T03:31:01;29.00;99.90
64501;DHT22;50874;24.150;-110.320;2023-10-08T03:33:36;29.00;99.90
64501;DHT22;50874;24.150;-110.320;2023-10-08T03:36:06;28.90;99.90
64501;DHT22;50874;24.150;-110.320;2023-10-08T03:39:00;28.90;99.90
64501;DHT22;50874;24.150;-110.320;2023-10-08T03:41:37;28.80;99.90
64501;DHT22;50874;24.150;-110.320;2023-10-08T03:44:06;28.70;99.90
64501;DHT22;50874;24.150;-110.320;2023-10-08T03:46:43;28.60;99.90
64501;DHT22;50874;24.150;-110.320;2023-10-08T03:49:10;28.40;99.90
64501;DHT22;50874;24.150;-110.320;2023-10-08T03:51:55;28.20;99.90
64501;DHT22;50874;24.150;-110.320;2023-10-08T03:54:26;28.10;99.90
64501;DHT22;50874;24.150;-110.320;2023-10-08T03:57:02;28.00;99.90
64501;DHT22;50874;24.150;-110.320;2023-10-08T03:59:39;27.90;99.90
64501;DHT22;50874;24.150;-110.320;2023-10-08T04:02:08;27.90;99.90
64501;DHT22;50874;24.150;-110.320;2023-10-08T04:05:02;27.80;99.90
64501;DHT22;50874;24.150;-110.320;2023-10-08T04:07:44;27.70;99.90
64501;DHT22;50874;24.150;-110.320;2023-10-08T04:10:32;27.60;99.90
64501;DHT22;50874;24.150;-110.320;2023-10-08T04:13:20;27.60;99.90
64501;DHT22;50874;24.150;-110.320;2023-10-08T04:15:47;27.60;99.90
64501;DHT22;50874;24.150;-110.320;2023-10-08T04:18:13;27.50;99.90
64501;DHT22;50874;24.150;-110.320;2023-10-08T04:20:40;27.60;99.90
64501;DHT22;50874;24.150;-110.320;2023-10-08T04:23:26;27.50;99.90
64501;DHT22;50874;24.150;-110.320;2023-10-08T04:25:52;27.50;99.90
64501;DHT22;50874;24.150;-110.320;2023-10-08T04:28:23;27.50;99.90
64501;DHT22;50874;24.150;-110.320;2023-10-08T04:31:01;27.40;99.90
64501;DHT22;50874;24.150;-110.320;2023-10-08T04:33:43;27.40;99.90
64501;DHT22;50874;24.150;-110.320;2023-10-08T04:36:10;27.40;99.90
64501;DHT22;50874;24.150;-110.320;2023-10-08T04:38:44;27.50;99.90
64501;DHT22;50874;24.150;-110.320;2023-10-08T04:41:14;27.50;99.90
64501;DHT22;50874;24.150;-110.320;2023-10-08T04:43:43;27.50;99.90
64501;DHT22;50874;24.150;-110.320;2023-10-08T04:46:09;27.60;99.90
64501;DHT22;50874;24.150;-110.320;2023-10-08T04:48:46;27.60;99.90
64501;DHT22;50874;24.150;-110.320;2023-10-08T04:51:12;27.70;99.90
64501;DHT22;50874;24.150;-110.320;2023-10-08T04:53:39;27.70;99.90
64501;DHT22;50874;24.150;-110.320;2023-10-08T04:56:11;27.60;99.90
64501;DHT22;50874;24.150;-110.320;2023-10-08T04:58:59;27.60;99.90
64501;DHT22;50874;24.150;-110.320;2023-10-08T05:01:35;27.50;99.90
64501;DHT22;50874;24.150;-110.320;2023-10-08T05:04:06;27.50;99.90
64501;DHT22;50874;24.150;-110.320;2023-10-08T05:06:49;27.50;99.90
64501;DHT22;50874;24.150;-110.320;2023-10-08T05:09:16;27.60;99.90
64501;DHT22;50874;24.150;-110.320;2023-10-08T05:11:47;27.60;99.90
64501;DHT22;50874;24.150;-110.320;2023-10-08T05:14:21;27.60;99.90
64501;DHT22;50874;24.150;-110.320;2023-10-08T05:17:05;27.60;99.90
64501;DHT22;50874;24.150;-110.320;2023-10-08T05:19:49;27.60;99.90
64501;DHT22;50874;24.150;-110.320;2023-10-08T05:22:38;27.60;99.90
64501;DHT22;50874;24.150;-110.320;2023-10-08T05:25:05;27.60;99.90
64501;DHT22;50874;24.150;-110.320;2023-10-08T05:27:54;27.60;99.90
64501;DHT22;50874;24.150;-110.320;2023-10-08T05:30:31;27.60;99.90
64501;DHT22;50874;24.150;-110.320;2023-10-08T05:33:05;27.60;99.90
64501;DHT22;50874;24.150;-110.320;2023-10-08T05:35:36;27.60;99.90
64501;DHT22;50874;24.150;-110.320;2023-10-08T05:38:14;27.60;99.90
64501;DHT22;50874;24.150;-110.320;2023-10-08T05:41:09;27.60;99.90
64501;DHT22;50874;24.150;-110.320;2023-10-08T05:43:54;27.60;99.90
64501;DHT22;50874;24.150;-110.320;2023-10-08T05:46:40;27.60;99.90
64501;DHT22;50874;24.150;-110.320;2023-10-08T05:49:38;27.60;99.90
64501;DHT22;50874;24.150;-110.320;2023-10-08T05:52:10;27.60;99.90
64501;DHT22;50874;24.150;-110.320;2023-10-08T05:54:50;27.50;99.90
64501;DHT22;50874;24.150;-110.320;2023-10-08T05:58:02;27.50;99.90
64501;DHT22;50874;24.150;-110.320;2023-10-08T06:00:43;27.50;99.90
64501;DHT22;50874;24.150;-110.320;2023-10-08T06:03:39;27.60;99.90
64501;DHT22;50874;24.150;-110.320;2023-10-08T06:06:26;27.60;99.90
64501;DHT22;50874;24.150;-110.320;2023-10-08T06:09:17;27.60;99.90
64501;DHT22;50874;24.150;-110.320;2023-10-08T06:12:01;27.70;99.90
64501;DHT22;50874;24.150;-110.320;2023-10-08T06:14:38;27.70;99.90
64501;DHT22;50874;24.150;-110.320;2023-10-08T06:17:40;27.70;99.90
64501;DHT22;50874;24.150;-110.320;2023-10-08T06:20:38;27.70;99.90
64501;DHT22;50874;24.150;-110.320;2023-10-08T06:23:13;27.70;99.90
64501;DHT22;50874;24.150;-110.320;2023-10-08T06:25:44;27.80;99.90
64501;DHT22;50874;24.150;-110.320;2023-10-08T06:28:15;27.80;99.90
64501;DHT22;50874;24.150;-110.320;2023-10-08T06:30:49;27.80;99.90
64501;DHT22;50874;24.150;-110.320;2023-10-08T06:33:20;27.90;99.90
64501;DHT22;50874;24.150;-110.320;2023-10-08T06:35:47;27.80;99.90
64501;DHT22;50874;24.150;-110.320;2023-10-08T06:38:34;27.70;99.90
64501;DHT22;50874;24.150;-110.320;2023-10-08T06:41:09;27.80;99.90
64501;DHT22;50874;24.150;-110.320;2023-10-08T06:43:50;27.70;99.90
64501;DHT22;50874;24.150;-110.320;2023-10-08T06:46:29;27.70;99.90
64501;DHT22;50874;24.150;-110.320;2023-10-08T06:48:59;27.70;99.90
64501;DHT22;50874;24.150;-110.320;2023-10-08T06:51:25;27.70;99.90
64501;DHT22;50874;24.150;-110.320;2023-10-08T06:53:52;27.70;99.90
64501;DHT22;50874;24.150;-110.320;2023-10-08T06:56:20;27.70;99.90
64501;DHT22;50874;24.150;-110.320;2023-10-08T06:58:46;27.60;99.90
64501;DHT22;50874;24.150;-110.320;2023-10-08T07:01:18;27.50;99.90
64501;DHT22;50874;24.150;-110.320;2023-10-08T07:03:48;27.50;99.90
64501;DHT22;50874;24.150;-110.320;2023-10-08T07:06:18;27.50;99.90
64501;DHT22;50874;24.150;-110.320;2023-10-08T07:09:14;27.40;99.90
64501;DHT22;50874;24.150;-110.320;2023-10-08T07:11:58;27.30;99.90
64501;DHT22;50874;24.150;-110.320;2023-10-08T07:14:41;27.40;99.90
64501;DHT22;50874;24.150;-110.320;2023-10-08T07:17:09;27.40;99.90
64501;DHT22;50874;24.150;-110.320;2023-10-08T07:19:42;27.40;99.90
64501;DHT22;50874;24.150;-110.320;2023-10-08T07:22:13;27.30;99.90
64501;DHT22;50874;24.150;-110.320;2023-10-08T07:24:48;27.30;99.90
64501;DHT22;50874;24.150;-110.320;2023-10-08T07:27:18;27.30;99.90
64501;DHT22;50874;24.150;-110.320;2023-10-08T07:29:48;27.30;99.90
64501;DHT22;50874;24.150;-110.320;2023-10-08T07:32:16;27.40;99.90
64501;DHT22;50874;24.150;-110.320;2023-10-08T07:34:44;27.30;99.90
64501;DHT22;50874;24.150;-110.320;2023-10-08T07:37:16;27.30;99.90
64501;DHT22;50874;24.150;-110.320;2023-10-08T07:39:44;27.30;99.90
64501;DHT22;50874;24.150;-110.320;2023-10-08T07:42:15;27.20;99.90
64501;DHT22;50874;24.150;-110.320;2023-10-08T07:44:41;27.20;99.90
64501;DHT22;50874;24.150;-110.320;2023-10-08T07:47:14;27.20;99.90
64501;DHT22;50874;24.150;-110.320;2023-10-08T07:49:41;27.20;99.90
64501;DHT22;50874;24.150;-110.320;2023-10-08T07:52:10;27.20;99.90
64501;DHT22;50874;24.150;-110.320;2023-10-08T07:54:43;27.20;99.90
64501;DHT22;50874;24.150;-110.320;2023-10-08T07:57:10;27.20;99.90
64501;DHT22;50874;24.150;-110.320;2023-10-08T07:59:46;27.20;99.90
64501;DHT22;50874;24.150;-110.320;2023-10-08T08:02:17;27.20;99.90
64501;DHT22;50874;24.150;-110.320;2023-10-08T08:04:50;27.20;99.90
64501;DHT22;50874;24.150;-110.320;2023-10-08T08:07:19;27.10;99.90
64501;DHT22;50874;24.150;-110.320;2023-10-08T08:09:51;27.00;99.90
64501;DHT22;50874;24.150;-110.320;2023-10-08T08:12:22;26.90;99.90
64501;DHT22;50874;24.150;-110.320;2023-10-08T08:14:48;26.90;99.90
64501;DHT22;50874;24.150;-110.320;2023-10-08T08:17:21;26.90;99.90
64501;DHT22;50874;24.150;-110.320;2023-10-08T08:19:49;26.90;99.90
64501;DHT22;50874;24.150;-110.320;2023-10-08T08:22:20;26.90;99.90
64501;DHT22;50874;24.150;-110.320;2023-10-08T08:24:51;26.90;99.90
64501;DHT22;50874;24.150;-110.320;2023-10-08T08:27:21;27.00;99.90
64501;DHT22;50874;24.150;-110.320;2023-10-08T08:29:58;27.00;99.90
64501;DHT22;50874;24.150;-110.320;2023-10-08T08:32:49;27.00;99.90
64501;DHT22;50874;24.150;-110.320;2023-10-08T08:35:15;27.00;99.90
64501;DHT22;50874;24.150;-110.320;2023-10-08T08:37:46;27.00;99.90
64501;DHT22;50874;24.150;-110.320;2023-10-08T08:40:20;26.90;99.90
64501;DHT22;50874;24.150;-110.320;2023-10-08T08:42:49;26.80;99.90
64501;DHT22;50874;24.150;-110.320;2023-10-08T08:45:20;26.80;99.90
64501;DHT22;50874;24.150;-110.320;2023-10-08T08:47:48;26.80;99.90
64501;DHT22;50874;24.150;-110.320;2023-10-08T08:50:20;26.70;99.90
64501;DHT22;50874;24.150;-110.320;2023-10-08T08:52:47;26.70;99.90
64501;DHT22;50874;24.150;-110.320;2023-10-08T08:55:14;26.70;99.90
64501;DHT22;50874;24.150;-110.320;2023-10-08T08:57:45;26.70;99.90
64501;DHT22;50874;24.150;-110.320;2023-10-08T09:00:17;26.70;99.90
64501;DHT22;50874;24.150;-110.320;2023-10-08T09:02:46;26.70;99.90
64501;DHT22;50874;24.150;-110.320;2023-10-08T09:05:17;26.60;99.90
64501;DHT22;50874;24.150;-110.320;2023-10-08T09:08:00;26.70;99.90
64501;DHT22;50874;24.150;-110.320;2023-10-08T09:10:36;26.70;99.90
64501;DHT22;50874;24.150;-110.320;2023-10-08T09:13:20;26.60;99.90
64501;DHT22;50874;24.150;-110.320;2023-10-08T09:15:47;26.60;99.90
64501;DHT22;50874;24.150;-110.320;2023-10-08T09:18:22;26.70;99.90
64501;DHT22;50874;24.150;-110.320;2023-10-08T09:20:53;26.70;99.90
64501;DHT22;50874;24.150;-110.320;2023-10-08T09:23:21;26.70;99.90
64501;DHT22;50874;24.150;-110.320;2023-10-08T09:25:49;26.70;99.90
64501;DHT22;50874;24.150;-110.320;2023-10-08T09:28:28;26.70;99.90
64501;DHT22;50874;24.150;-110.320;2023-10-08T09:30:55;26.70;99.90
64501;DHT22;50874;24.150;-110.320;2023-10-08T09:33:24;26.70;99.90
64501;DHT22;50874;24.150;-110.320;2023-10-08T09:35:55;26.70;99.90
64501;DHT22;50874;24.150;-110.320;2023-10-08T09:38:23;26.70;99.90
64501;DHT22;50874;24.150;-110.320;2023-10-08T09:40:52;26.70;99.90
64501;DHT22;50874;24.150;-110.320;2023-10-08T09:43:19;26.70;99.90
64501;DHT22;50874;24.150;-110.320;2023-10-08T09:46:09;26.70;99.90
64501;DHT22;50874;24.150;-110.320;2023-10-08T09:48:41;26.70;99.90
64501;DHT22;50874;24.150;-110.320;2023-10-08T09:51:18;26.70;99.90
64501;DHT22;50874;24.150;-110.320;2023-10-08T09:54:37;26.70;99.90
64501;DHT22;50874;24.150;-110.320;2023-10-08T09:56:40;26.70;99.90
64501;DHT22;50874;24.150;-110.320;2023-10-08T09:59:25;26.70;99.90
64501;DHT22;50874;24.150;-110.320;2023-10-08T10:01:57;26.70;99.90
64501;DHT22;50874;24.150;-110.320;2023-10-08T10:04:30;26.70;99.90
64501;DHT22;50874;24.150;-110.320;2023-10-08T10:06:59;26.70;99.90
64501;DHT22;50874;24.150;-110.320;2023-10-08T10:09:33;26.70;99.90
64501;DHT22;50874;24.150;-110.320;2023-10-08T10:12:02;26.70;99.90
64501;DHT22;50874;24.150;-110.320;2023-10-08T10:14:42;26.70;99.90
64501;DHT22;50874;24.150;-110.320;2023-10-08T10:17:26;26.70;99.90
64501;DHT22;50874;24.150;-110.320;2023-10-08T10:19:59;26.80;99.90
64501;DHT22;50874;24.150;-110.320;2023-10-08T10:22:34;26.80;99.90
64501;DHT22;50874;24.150;-110.320;2023-10-08T10:25:02;26.80;99.90
64501;DHT22;50874;24.150;-110.320;2023-10-08T10:30:22;26.80;99.90
64501;DHT22;50874;24.150;-110.320;2023-10-08T10:33:00;26.80;99.90
64501;DHT22;50874;24.150;-110.320;2023-10-08T10:35:29;26.80;99.90
64501;DHT22;50874;24.150;-110.320;2023-10-08T10:37:59;26.90;99.90
64501;DHT22;50874;24.150;-110.320;2023-10-08T10:40:29;26.90;99.90
64501;DHT22;50874;24.150;-110.320;2023-10-08T10:43:06;26.80;99.90
64501;DHT22;50874;24.150;-110.320;2023-10-08T10:45:50;26.90;99.90
64501;DHT22;50874;24.150;-110.320;2023-10-08T10:48:17;26.80;99.90
64501;DHT22;50874;24.150;-110.320;2023-10-08T10:50:52;26.80;99.90
64501;DHT22;50874;24.150;-110.320;2023-10-08T10:53:33;26.70;99.90
64501;DHT22;50874;24.150;-110.320;2023-10-08T10:56:00;26.70;99.90
64501;DHT22;50874;24.150;-110.320;2023-10-08T10:58:33;26.70;99.90
64501;DHT22;50874;24.150;-110.320;2023-10-08T11:01:06;26.70;99.90
64501;DHT22;50874;24.150;-110.320;2023-10-08T11:03:51;26.70;99.90
64501;DHT22;50874;24.150;-110.320;2023-10-08T11:06:19;26.70;99.90
64501;DHT22;50874;24.150;-110.320;2023-10-08T11:08:59;26.70;99.90
64501;DHT22;50874;24.150;-110.320;2023-10-08T11:11:27;26.80;99.90
64501;DHT22;50874;24.150;-110.320;2023-10-08T11:13:59;26.80;99.90
64501;DHT22;50874;24.150;-110.320;2023-10-08T11:16:26;26.80;99.90
64501;DHT22;50874;24.150;-110.320;2023-10-08T11:19:02;26.80;99.90
64501;DHT22;50874;24.150;-110.320;2023-10-08T11:21:32;26.80;99.90
64501;DHT22;50874;24.150;-110.320;2023-10-08T11:24:02;26.80;99.90
64501;DHT22;50874;24.150;-110.320;2023-10-08T11:26:38;26.80;99.90
64501;DHT22;50874;24.150;-110.320;2023-10-08T11:29:06;26.70;99.90
64501;DHT22;50874;24.150;-110.320;2023-10-08T11:31:40;26.70;99.90
64501;DHT22;50874;24.150;-110.320;2023-10-08T11:34:11;26.70;99.90
64501;DHT22;50874;24.150;-110.320;2023-10-08T11:36:39;26.70;99.90
64501;DHT22;50874;24.150;-110.320;2023-10-08T11:39:23;26.70;99.90
64501;DHT22;50874;24.150;-110.320;2023-10-08T11:42:00;26.70;99.90
64501;DHT22;50874;24.150;-110.320;2023-10-08T11:44:54;26.70;99.90
64501;DHT22;50874;24.150;-110.320;2023-10-08T11:47:20;26.70;99.90
64501;DHT22;50874;24.150;-110.320;2023-10-08T11:49:51;26.70;99.90
64501;DHT22;50874;24.150;-110.320;2023-10-08T11:52:36;26.70;99.90
64501;DHT22;50874;24.150;-110.320;2023-10-08T11:55:08;26.80;99.90
64501;DHT22;50874;24.150;-110.320;2023-10-08T11:57:36;26.80;99.90
64501;DHT22;50874;24.150;-110.320;2023-10-08T12:00:12;26.80;99.90
64501;DHT22;50874;24.150;-110.320;2023-10-08T12:02:53;26.90;99.90
64501;DHT22;50874;24.150;-110.320;2023-10-08T12:05:31;27.00;99.90
64501;DHT22;50874;24.150;-110.320;2023-10-08T12:08:05;27.00;99.90
64501;DHT22;50874;24.150;-110.320;2023-10-08T12:10:34;27.10;99.90
64501;DHT22;50874;24.150;-110.320;2023-10-08T12:13:03;27.10;99.90
64501;DHT22;50874;24.150;-110.320;2023-10-08T12:15:34;27.10;99.90
64501;DHT22;50874;24.150;-110.320;2023-10-08T12:18:05;27.10;99.90
64501;DHT22;50874;24.150;-110.320;2023-10-08T12:20:36;27.20;99.90
64501;DHT22;50874;24.150;-110.320;2023-10-08T12:23:10;27.20;99.90
64501;DHT22;50874;24.150;-110.320;2023-10-08T12:25:37;27.20;99.90
64501;DHT22;50874;24.150;-110.320;2023-10-08T12:28:06;27.20;99.90
64501;DHT22;50874;24.150;-110.320;2023-10-08T12:30:33;27.20;99.90
64501;DHT22;50874;24.150;-110.320;2023-10-08T12:33:07;27.20;99.90
64501;DHT22;50874;24.150;-110.320;2023-10-08T12:35:43;27.20;99.90
64501;DHT22;50874;24.150;-110.320;2023-10-08T12:38:10;27.20;99.90
64501;DHT22;50874;24.150;-110.320;2023-10-08T12:40:37;27.20;99.90
64501;DHT22;50874;24.150;-110.320;2023-10-08T12:43:33;27.20;99.90
64501;DHT22;50874;24.150;-110.320;2023-10-08T12:46:04;27.20;99.90
64501;DHT22;50874;24.150;-110.320;2023-10-08T12:48:37;27.20;99.90
64501;DHT22;50874;24.150;-110.320;2023-10-08T12:51:06;27.20;99.90
64501;DHT22;50874;24.150;-110.320;2023-10-08T12:53:37;27.30;99.90
64501;DHT22;50874;24.150;-110.320;2023-10-08T12:56:09;27.20;99.90
64501;DHT22;50874;24.150;-110.320;2023-10-08T12:58:42;27.20;99.90
64501;DHT22;50874;24.150;-110.320;2023-10-08T13:01:15;27.20;99.90
64501;DHT22;50874;24.150;-110.320;2023-10-08T13:03:47;27.20;99.90
64501;DHT22;50874;24.150;-110.320;2023-10-08T13:06:15;27.20;99.90
64501;DHT22;50874;24.150;-110.320;2023-10-08T13:08:49;27.10;99.90
64501;DHT22;50874;24.150;-110.320;2023-10-08T13:11:22;27.10;99.90
64501;DHT22;50874;24.150;-110.320;2023-10-08T13:14:03;27.10;99.90
64501;DHT22;50874;24.150;-110.320;2023-10-08T13:16:31;27.10;99.90
64501;DHT22;50874;24.150;-110.320;2023-10-08T13:19:06;27.10;99.90
64501;DHT22;50874;24.150;-110.320;2023-10-08T13:21:34;27.10;99.90
64501;DHT22;50874;24.150;-110.320;2023-10-08T13:24:08;27.10;99.90
64501;DHT22;50874;24.150;-110.320;2023-10-08T13:26:36;27.10;99.90
64501;DHT22;50874;24.150;-110.320;2023-10-08T13:29:04;27.10;99.90
64501;DHT22;50874;24.150;-110.320;2023-10-08T13:31:32;27.00;99.90
64501;DHT22;50874;24.150;-110.320;2023-10-08T13:34:02;27.10;99.90
64501;DHT22;50874;24.150;-110.320;2023-10-08T13:36:35;27.10;99.90
64501;DHT22;50874;24.150;-110.320;2023-10-08T13:39:07;27.00;99.90
64501;DHT22;50874;24.150;-110.320;2023-10-08T13:41:44;27.00;99.90
64501;DHT22;50874;24.150;-110.320;2023-10-08T13:44:14;27.00;99.90
64501;DHT22;50874;24.150;-110.320;2023-10-08T13:46:41;27.00;99.90
64501;DHT22;50874;24.150;-110.320;2023-10-08T13:49:17;27.10;99.90
64501;DHT22;50874;24.150;-110.320;2023-10-08T13:51:44;27.00;99.90
64501;DHT22;50874;24.150;-110.320;2023-10-08T13:54:14;27.10;99.90
64501;DHT22;50874;24.150;-110.320;2023-10-08T13:56:41;27.10;99.90
64501;DHT22;50874;24.150;-110.320;2023-10-08T13:59:13;27.10;99.90
64501;DHT22;50874;24.150;-110.320;2023-10-08T14:01:41;27.10;99.90
64501;DHT22;50874;24.150;-110.320;2023-10-08T14:04:17;27.20;99.90
64501;DHT22;50874;24.150;-110.320;2023-10-08T14:06:46;27.30;99.90
64501;DHT22;50874;24.150;-110.320;2023-10-08T14:09:21;27.40;99.90
64501;DHT22;50874;24.150;-110.320;2023-10-08T14:11:48;27.60;99.90
64501;DHT22;50874;24.150;-110.320;2023-10-08T14:14:19;27.70;99.90
64501;DHT22;50874;24.150;-110.320;2023-10-08T14:16:46;27.80;99.90
64501;DHT22;50874;24.150;-110.320;2023-10-08T14:19:20;27.90;99.90
64501;DHT22;50874;24.150;-110.320;2023-10-08T14:22:04;27.90;99.90
64501;DHT22;50874;24.150;-110.320;2023-10-08T14:24:31;28.00;99.90
64501;DHT22;50874;24.150;-110.320;2023-10-08T14:27:06;28.10;99.90
64501;DHT22;50874;24.150;-110.320;2023-10-08T14:29:39;28.20;99.90
64501;DHT22;50874;24.150;-110.320;2023-10-08T14:32:16;28.30;99.90
64501;DHT22;50874;24.150;-110.320;2023-10-08T14:34:45;28.40;99.90
64501;DHT22;50874;24.150;-110.320;2023-10-08T14:37:17;28.60;99.90
64501;DHT22;50874;24.150;-110.320;2023-10-08T14:40:02;28.70;99.90
64501;DHT22;50874;24.150;-110.320;2023-10-08T14:42:46;28.80;99.90
64501;DHT22;50874;24.150;-110.320;2023-10-08T14:45:26;29.00;99.90
64501;DHT22;50874;24.150;-110.320;2023-10-08T14:47:54;29.00;99.90
64501;DHT22;50874;24.150;-110.320;2023-10-08T14:50:22;29.20;99.90
64501;DHT22;50874;24.150;-110.320;2023-10-08T14:52:48;29.20;99.90
64501;DHT22;50874;24.150;-110.320;2023-10-08T14:55:16;29.30;99.90
64501;DHT22;50874;24.150;-110.320;2023-10-08T14:57:46;29.40;99.90
64501;DHT22;50874;24.150;-110.320;2023-10-08T15:00:12;29.40;99.90
64501;DHT22;50874;24.150;-110.320;2023-10-08T15:02:39;29.50;99.90
64501;DHT22;50874;24.150;-110.320;2023-10-08T15:05:12;29.50;99.90
64501;DHT22;50874;24.150;-110.320;2023-10-08T15:07:43;29.60;99.90
64501;DHT22;50874;24.150;-110.320;2023-10-08T15:10:11;29.70;99.90
64501;DHT22;50874;24.150;-110.320;2023-10-08T15:12:39;29.80;99.90
64501;DHT22;50874;24.150;-110.320;2023-10-08T15:15:07;29.80;99.90
64501;DHT22;50874;24.150;-110.320;2023-10-08T15:17:45;29.90;99.90
64501;DHT22;50874;24.150;-110.320;2023-10-08T15:20:13;30.00;99.90
64501;DHT22;50874;24.150;-110.320;2023-10-08T15:22:48;30.20;99.90
64501;DHT22;50874;24.150;-110.320;2023-10-08T15:25:17;30.40;99.90
64501;DHT22;50874;24.150;-110.320;2023-10-08T15:27:44;30.70;99.90
64501;DHT22;50874;24.150;-110.320;2023-10-08T15:30:18;30.90;99.90
64501;DHT22;50874;24.150;-110.320;2023-10-08T15:32:49;31.00;99.90